createdAt,value
2023-07-08T00:00:52.389Z,78.47
2023-07-08T00:03:20.436Z,76.37
2023-07-08T00:05:48.966Z,77.40
2023-07-08T00:08:16.664Z,79.44
2023-07-08T00:10:43.188Z,79.13
2023-07-08T00:13:11.174Z,79.75
2023-07-08T00:15:39.051Z,81.23
2023-07-08T00:18:17.011Z,78.86
2023-07-08T00:20:48.915Z,80.18
2023-07-08T00:23:15.632Z,82.08
2023-07-08T00:25:42.994Z,79.50
2023-07-08T00:28:10.909Z,78.97
2023-07-08T00:30:37.440Z,78.54
2023-07-08T00:33:04.144Z,78.25
2023-07-08T00:35:44.135Z,79.22
2023-07-08T00:38:29.787Z,79.57
2023-07-08T00:41:08.541Z,80.75
2023-07-08T00:43:47.643Z,81.80
2023-07-08T00:46:32.332Z,82.87
2023-07-08T00:49:08.094Z,83.54
2023-07-08T00:51:40.061Z,84.56
2023-07-08T00:54:17.210Z,83.96
2023-07-08T00:56:48.184Z,84.19
2023-07-08T00:59:21.799Z,85.16
2023-07-08T01:01:49.502Z,85.68
2023-07-08T01:04:21.185Z,86.20
2023-07-08T01:07:26.159Z,86.64
2023-07-08T01:09:59.628Z,86.81
2023-07-08T01:12:31.813Z,86.47
2023-07-08T01:15:01.653Z,86.99
2023-07-08T01:17:33.613Z,86.77
2023-07-08T01:20:12.337Z,86.21
2023-07-08T01:22:39.678Z,86.88
2023-07-08T01:25:08.251Z,86.20
2023-07-08T01:27:39.252Z,85.91
2023-07-08T01:30:07.208Z,90.91
2023-07-08T01:32:37.250Z,91.08
2023-07-08T01:35:04.298Z,86.10
2023-07-08T01:37:36.189Z,86.82
2023-07-08T01:40:38.947Z,88.02
2023-07-08T01:43:09.746Z,87.28
2023-07-08T01:45:40.802Z,87.51
2023-07-08T01:48:11.139Z,87.94
2023-07-08T01:50:41.789Z,88.71
2023-07-08T01:53:15.271Z,89.05
2023-07-08T01:55:41.807Z,88.70
2023-07-08T01:58:08.359Z,88.67
2023-07-08T02:00:34.907Z,89.74
2023-07-08T02:03:01.404Z,90.52
2023-07-08T02:05:28.037Z,91.45
2023-07-08T02:07:54.544Z,94.37
2023-07-08T02:10:21.264Z,96.62
2023-07-08T02:12:47.745Z,98.09
2023-07-08T02:15:14.456Z,98.06
2023-07-08T02:17:40.908Z,98.87
2023-07-08T02:20:09.377Z,100.00
2023-07-08T02:22:37.625Z,100.00
2023-07-08T02:25:04.858Z,100.00
2023-07-08T02:27:31.375Z,100.00
2023-07-08T02:29:57.872Z,100.00
2023-07-08T02:32:24.394Z,100.00
2023-07-08T02:34:53.152Z,100.00
2023-07-08T02:37:19.732Z,100.00
2023-07-08T02:39:46.422Z,100.00
2023-07-08T02:42:12.964Z,100.00
2023-07-08T02:44:39.452Z,100.00
2023-07-08T02:47:06.007Z,100.00
2023-07-08T02:49:32.517Z,100.00
2023-07-08T02:51:58.993Z,100.00
2023-07-08T02:54:25.465Z,100.00
2023-07-08T02:56:51.960Z,100.00
2023-07-08T02:59:18.445Z,100.00
2023-07-08T03:01:47.923Z,100.00
2023-07-08T03:04:15.092Z,100.00
2023-07-08T03:06:43.499Z,100.00
2023-07-08T03:09:11.306Z,100.00
2023-07-08T03:11:37.751Z,100.00
2023-07-08T03:14:04.490Z,100.00
2023-07-08T03:16:31.499Z,100.00
2023-07-08T03:18:58.079Z,100.00
2023-07-08T03:21:24.671Z,100.00
2023-07-08T03:23:52.442Z,100.00
2023-07-08T03:26:22.157Z,100.00
2023-07-08T03:28:49.783Z,100.00
2023-07-08T03:31:16.891Z,100.00
2023-07-08T03:33:43.871Z,100.00
2023-07-08T03:36:14.487Z,100.00
2023-07-08T03:38:41.113Z,100.00
2023-07-08T03:41:08.194Z,100.00
2023-07-08T03:44:08.446Z,100.00
2023-07-08T03:46:35.036Z,100.00
2023-07-08T03:49:01.573Z,100.00
2023-07-08T03:51:37.433Z,100.00
2023-07-08T03:54:05.084Z,100.00
2023-07-08T03:56:31.832Z,100.00
2023-07-08T03:58:58.441Z,100.00
2023-07-08T04:01:26.518Z,99.65
2023-07-08T04:03:54.604Z,100.00
2023-07-08T04:06:21.725Z,97.07
2023-07-08T04:08:48.502Z,98.90
2023-07-08T04:11:17.892Z,97.40
2023-07-08T04:13:44.611Z,97.34
2023-07-08T04:16:20.716Z,93.71
2023-07-08T04:18:47.686Z,93.61
2023-07-08T04:23:45.436Z,94.33
2023-07-08T04:26:12.197Z,92.83
2023-07-08T04:28:39.230Z,94.27
2023-07-08T04:31:05.840Z,91.19
2023-07-08T04:33:32.349Z,92.25
2023-07-08T04:35:58.824Z,93.10
2023-07-08T04:38:27.498Z,94.41
2023-07-08T04:40:54.851Z,91.92
2023-07-08T04:43:22.440Z,92.47
2023-07-08T04:45:52.604Z,93.53
2023-07-08T04:48:22.241Z,92.73
2023-07-08T04:50:51.068Z,97.15
2023-07-08T04:53:17.881Z,91.64
2023-07-08T04:56:02.313Z,90.33
2023-07-08T04:58:29.066Z,92.39
2023-07-08T05:00:55.525Z,93.34
2023-07-08T05:03:22.042Z,92.00
2023-07-08T05:05:48.531Z,91.95
2023-07-08T05:08:15.065Z,91.63
2023-07-08T05:10:41.761Z,92.12
2023-07-08T05:13:08.226Z,90.05
2023-07-08T05:15:34.733Z,90.44
2023-07-08T05:18:01.241Z,91.50
2023-07-08T05:20:27.823Z,95.19
2023-07-08T05:22:54.278Z,96.53
2023-07-08T05:25:22.005Z,98.20
2023-07-08T05:27:48.985Z,96.27
2023-07-08T05:30:18.456Z,94.60
2023-07-08T05:32:45.890Z,97.98
2023-07-08T05:35:12.594Z,98.98
2023-07-08T05:37:40.945Z,90.39
2023-07-08T05:40:09.526Z,88.75
2023-07-08T05:42:36.426Z,90.48
2023-07-08T05:45:04.084Z,91.64
2023-07-08T05:47:30.641Z,90.50
2023-07-08T05:49:57.136Z,88.06
2023-07-08T05:52:23.617Z,88.61
2023-07-08T05:54:50.128Z,90.81
2023-07-08T05:57:16.615Z,91.22
2023-07-08T05:59:44.351Z,89.89
2023-07-08T06:02:13.244Z,87.44
2023-07-08T06:04:41.243Z,89.24
2023-07-08T06:07:07.794Z,90.33
2023-07-08T06:09:34.643Z,88.68
2023-07-08T06:12:01.458Z,87.88
2023-07-08T06:14:29.227Z,87.01
2023-07-08T06:16:58.299Z,88.80
2023-07-08T06:19:24.892Z,88.90
2023-07-08T06:21:51.479Z,85.15
2023-07-08T06:24:18.028Z,81.92
2023-07-08T06:26:44.505Z,80.74
2023-07-08T06:29:11.095Z,80.86
2023-07-08T06:31:37.653Z,80.31
2023-07-08T06:34:05.179Z,80.03
2023-07-08T06:36:32.373Z,76.93
2023-07-08T06:38:59.041Z,71.15
2023-07-08T06:41:25.755Z,73.27
2023-07-08T06:43:52.283Z,69.25
2023-07-08T06:46:20.172Z,69.85
2023-07-08T06:48:47.160Z,67.89
2023-07-08T06:51:13.805Z,64.70
2023-07-08T06:53:40.357Z,66.39
2023-07-08T06:56:06.929Z,67.25
2023-07-08T06:58:33.477Z,63.73
2023-07-08T07:01:00.328Z,61.64
2023-07-08T07:03:27.174Z,60.91
2023-07-08T07:05:53.737Z,60.62
2023-07-08T07:08:20.481Z,61.32
2023-07-08T07:10:46.939Z,62.17
2023-07-08T07:13:13.450Z,63.21
2023-07-08T07:15:40.093Z,64.81
2023-07-08T07:18:07.128Z,63.62
2023-07-08T07:20:38.132Z,60.69
2023-07-08T07:23:04.806Z,60.36
2023-07-08T07:25:31.327Z,56.31
2023-07-08T07:27:58.535Z,56.62
2023-07-08T07:30:25.105Z,53.72
2023-07-08T07:32:51.671Z,52.73
2023-07-08T07:35:18.262Z,51.63
2023-07-08T07:37:45.302Z,51.20
2023-07-08T07:40:15.045Z,50.38
2023-07-08T07:42:43.476Z,48.83
2023-07-08T07:45:10.929Z,47.99
2023-07-08T07:47:37.855Z,46.60
2023-07-08T07:50:09.033Z,44.88
2023-07-08T07:52:35.958Z,44.61
2023-07-08T07:55:04.184Z,43.75
2023-07-08T07:57:30.810Z,44.82
2023-07-08T07:59:57.369Z,43.62
2023-07-08T08:02:24.238Z,44.56
2023-07-08T08:04:50.718Z,43.41
2023-07-08T08:07:17.392Z,43.20
2023-07-08T08:09:43.930Z,42.06
2023-07-08T08:12:12.188Z,41.04
2023-07-08T08:14:40.092Z,41.70
2023-07-08T08:17:06.854Z,42.44
2023-07-08T08:19:33.604Z,42.00
2023-07-08T08:22:00.235Z,42.37
2023-07-08T08:24:28.147Z,42.49
2023-07-08T08:26:55.339Z,39.19
2023-07-08T08:29:21.980Z,38.98
2023-07-08T08:31:48.538Z,37.48
2023-07-08T08:34:15.057Z,37.96
2023-07-08T08:36:41.735Z,38.67
2023-07-08T08:39:08.275Z,38.79
2023-07-08T08:41:36.580Z,38.62
2023-07-08T08:44:05.690Z,38.51
2023-07-08T08:47:11.855Z,36.20
2023-07-08T08:49:50.217Z,35.93
2023-07-08T08:52:16.726Z,33.87
2023-07-08T08:54:44.754Z,35.16
2023-07-08T08:57:36.454Z,35.51
2023-07-08T09:00:04.270Z,33.97
2023-07-08T09:02:30.809Z,32.04
2023-07-08T09:05:11.004Z,32.89
2023-07-08T09:07:41.973Z,31.84
2023-07-08T09:10:41.008Z,30.36
2023-07-08T09:13:12.904Z,30.08
2023-07-08T09:15:39.434Z,30.70
2023-07-08T09:18:28.850Z,30.35
2023-07-08T09:20:58.164Z,28.47
2023-07-08T09:23:31.021Z,28.91
2023-07-08T09:26:09.088Z,28.95
2023-07-08T09:28:44.867Z,28.57
2023-07-08T09:31:26.304Z,27.43
2023-07-08T09:34:12.739Z,25.91
2023-07-08T09:36:44.317Z,27.17
2023-07-08T09:39:14.083Z,27.95
2023-07-08T09:41:43.124Z,27.55
2023-07-08T09:44:24.281Z,26.06
2023-07-08T09:46:50.995Z,25.20
2023-07-08T09:49:21.391Z,24.08
2023-07-08T09:51:50.143Z,24.91
2023-07-08T09:54:21.447Z,26.08
2023-07-08T09:57:05.439Z,25.73
2023-07-08T09:59:39.102Z,23.89
2023-07-08T10:02:28.273Z,23.62
2023-07-08T10:05:01.863Z,26.51
2023-07-08T10:07:32.790Z,26.61
2023-07-08T10:10:03.622Z,25.65
2023-07-08T10:12:31.446Z,25.56
2023-07-08T10:15:05.439Z,24.56
2023-07-08T10:17:31.979Z,23.22
2023-07-08T10:19:58.612Z,23.11
2023-07-08T10:22:51.094Z,22.25
2023-07-08T10:25:29.040Z,23.46
2023-07-08T10:28:04.597Z,23.04
2023-07-08T10:30:41.406Z,23.09
2023-07-08T10:34:04.889Z,23.42
2023-07-08T10:37:03.724Z,23.06
2023-07-08T10:39:51.329Z,21.32
2023-07-08T10:42:46.961Z,20.56
2023-07-08T10:45:18.356Z,20.75
2023-07-08T10:48:11.091Z,20.94
2023-07-08T10:51:05.335Z,20.89
2023-07-08T10:53:45.484Z,21.00
2023-07-08T10:56:21.419Z,21.05
2023-07-08T10:59:04.981Z,22.73
2023-07-08T11:01:44.300Z,23.60
2023-07-08T11:04:40.797Z,24.87
2023-07-08T11:07:24.090Z,23.57
2023-07-08T11:09:59.315Z,23.47
2023-07-08T11:12:43.858Z,23.34
2023-07-08T11:15:26.421Z,22.92
2023-07-08T11:17:58.751Z,23.21
2023-07-08T11:20:52.826Z,23.60
2023-07-08T11:23:41.298Z,23.26
2023-07-08T11:26:24.453Z,24.39
2023-07-08T11:29:31.342Z,24.77
2023-07-08T11:31:58.920Z,24.97
2023-07-08T11:34:26.718Z,25.36
2023-07-08T11:36:53.829Z,25.59
2023-07-08T11:39:43.348Z,25.46
2023-07-08T11:42:19.405Z,25.33
2023-07-08T11:44:52.840Z,25.97
2023-07-08T11:47:47.299Z,26.16
2023-07-08T11:50:37.756Z,26.62
2023-07-08T11:53:09.053Z,26.36
2023-07-08T11:56:00.866Z,26.81
2023-07-08T11:58:30.305Z,26.24
2023-07-08T12:01:21.795Z,26.22
2023-07-08T12:03:51.367Z,26.13
2023-07-08T12:06:30.669Z,26.38
2023-07-08T12:09:15.424Z,27.01
2023-07-08T12:11:45.699Z,27.30
2023-07-08T12:14:13.029Z,27.69
2023-07-08T12:16:39.617Z,27.65
2023-07-08T12:19:07.644Z,27.39
2023-07-08T12:21:37.610Z,27.09
2023-07-08T12:24:05.558Z,27.57
2023-07-08T12:26:33.524Z,26.99
2023-07-08T12:28:59.995Z,27.16
2023-07-08T12:31:27.310Z,27.63
2023-07-08T12:33:55.253Z,27.46
2023-07-08T12:36:28.640Z,27.35
2023-07-08T12:39:00.380Z,27.68
2023-07-08T12:41:34.151Z,28.29
2023-07-08T12:44:08.947Z,28.58
2023-07-08T12:46:35.857Z,28.38
2023-07-08T12:49:02.408Z,28.66
2023-07-08T12:51:29.138Z,28.41
2023-07-08T12:53:56.013Z,28.06
2023-07-08T12:56:24.950Z,28.33
2023-07-08T12:58:57.647Z,28.25
2023-07-08T13:01:28.234Z,28.46
2023-07-08T13:04:00.505Z,28.29
2023-07-08T13:06:31.070Z,28.42
2023-07-08T13:09:10.472Z,28.48
2023-07-08T13:11:38.288Z,28.02
2023-07-08T13:14:07.710Z,28.33
2023-07-08T13:16:36.487Z,28.08
2023-07-08T13:19:04.177Z,28.55
2023-07-08T13:21:31.838Z,28.77
2023-07-08T13:23:59.039Z,28.45
2023-07-08T13:26:31.334Z,28.38
2023-07-08T13:29:02.579Z,28.62
2023-07-08T13:31:35.929Z,28.65
2023-07-08T13:34:16.145Z,28.01
2023-07-08T13:36:45.332Z,27.75
2023-07-08T13:39:22.000Z,27.68
2023-07-08T13:41:48.922Z,28.15
2023-07-08T13:44:15.610Z,27.73
2023-07-08T13:46:51.081Z,28.24
2023-07-08T13:49:45.832Z,27.85
2023-07-08T13:52:12.256Z,28.08
2023-07-08T13:54:45.890Z,28.53
2023-07-08T13:57:15.924Z,28.11
2023-07-08T13:59:42.483Z,27.85
2023-07-08T14:02:22.381Z,27.51
2023-07-08T14:04:50.302Z,27.57
2023-07-08T14:07:22.934Z,27.70
2023-07-08T14:09:49.701Z,27.83
2023-07-08T14:12:16.336Z,27.89
2023-07-08T14:14:43.085Z,27.52
2023-07-08T14:17:16.866Z,27.50
2023-07-08T14:19:43.608Z,27.86
2023-07-08T14:22:12.932Z,28.04
2023-07-08T14:24:39.422Z,27.90
2023-07-08T14:27:11.058Z,27.79
2023-07-08T14:29:37.502Z,27.63
2023-07-08T14:32:04.372Z,28.32
2023-07-08T14:34:30.952Z,28.12
2023-07-08T14:36:58.937Z,28.65
2023-07-08T14:39:27.507Z,27.80
2023-07-08T14:41:54.197Z,27.53
2023-07-08T14:44:25.882Z,27.59
2023-07-08T14:46:53.589Z,28.75
2023-07-08T14:49:22.480Z,27.97
2023-07-08T14:51:49.494Z,27.48
2023-07-08T14:54:16.254Z,27.76
2023-07-08T14:56:43.036Z,28.31
2023-07-08T14:59:17.276Z,28.62
2023-07-08T15:01:45.033Z,28.24
2023-07-08T15:04:13.317Z,27.81
2023-07-08T15:06:40.091Z,29.00
2023-07-08T15:09:06.652Z,28.29
2023-07-08T15:11:33.756Z,27.92
2023-07-08T15:14:02.244Z,29.15
2023-07-08T15:16:28.908Z,28.94
2023-07-08T15:18:55.513Z,29.19
2023-07-08T15:21:22.084Z,27.72
2023-07-08T15:23:48.594Z,27.69
2023-07-08T15:26:15.832Z,27.29
2023-07-08T15:28:50.618Z,28.33
2023-07-08T15:31:21.318Z,28.89
2023-07-08T15:33:48.086Z,27.78
2023-07-08T15:36:15.182Z,27.42
2023-07-08T15:38:42.552Z,27.39
2023-07-08T15:41:18.125Z,27.43
2023-07-08T15:43:44.633Z,27.74
2023-07-08T15:46:11.310Z,28.15
2023-07-08T15:48:37.887Z,28.92
2023-07-08T15:51:04.667Z,28.59
2023-07-08T15:53:31.344Z,28.49
2023-07-08T15:55:59.010Z,28.38
2023-07-08T15:58:35.074Z,29.30
2023-07-08T16:01:03.173Z,29.27
2023-07-08T16:03:32.267Z,29.24
2023-07-08T16:05:59.936Z,29.59
2023-07-08T16:08:27.417Z,29.31
2023-07-08T16:10:58.945Z,29.60
2023-07-08T16:13:33.918Z,29.49
2023-07-08T16:16:01.513Z,29.38
2023-07-08T16:18:27.981Z,28.89
2023-07-08T16:20:54.457Z,28.36
2023-07-08T16:23:22.123Z,28.79
2023-07-08T16:25:51.277Z,29.02
2023-07-08T16:28:44.510Z,28.46
2023-07-08T16:31:15.364Z,28.69
2023-07-08T16:33:42.931Z,28.48
2023-07-08T16:36:18.250Z,29.34
2023-07-08T16:38:45.247Z,28.30
2023-07-08T16:41:20.677Z,27.76
2023-07-08T16:43:47.320Z,27.61
2023-07-08T16:46:18.941Z,27.77
2023-07-08T16:48:45.629Z,28.12
2023-07-08T16:51:17.489Z,28.65
2023-07-08T16:53:44.957Z,28.40
2023-07-08T16:56:13.006Z,28.42
2023-07-08T16:58:40.802Z,28.10
2023-07-08T17:01:18.908Z,28.04
2023-07-08T17:03:45.629Z,28.19
2023-07-08T17:06:14.646Z,28.08
2023-07-08T17:08:41.344Z,28.52
2023-07-08T17:11:07.849Z,28.61
2023-07-08T17:13:34.382Z,28.67
2023-07-08T17:16:01.465Z,28.92
2023-07-08T17:18:29.357Z,29.47
2023-07-08T17:21:00.317Z,29.04
2023-07-08T17:23:27.381Z,28.45
2023-07-08T17:25:53.925Z,28.54
2023-07-08T17:28:20.537Z,28.53
2023-07-08T17:30:50.589Z,28.20
2023-07-08T17:33:22.479Z,28.82
2023-07-08T17:35:49.948Z,28.36
2023-07-08T17:38:23.033Z,28.85
2023-07-08T17:40:49.564Z,29.06
2023-07-08T17:43:16.015Z,29.36
2023-07-08T17:45:46.799Z,29.38
2023-07-08T17:48:25.710Z,29.26
2023-07-08T17:50:53.566Z,29.40
2023-07-08T17:53:20.170Z,29.26
2023-07-08T17:55:50.043Z,29.55
2023-07-08T17:58:17.510Z,30.12
2023-07-08T18:00:46.987Z,30.03
2023-07-08T18:03:14.309Z,30.45
2023-07-08T18:05:40.989Z,30.35
2023-07-08T18:08:07.900Z,30.39
2023-07-08T18:10:34.864Z,29.99
2023-07-08T18:13:05.767Z,30.03
2023-07-08T18:15:38.052Z,29.93
2023-07-08T18:18:04.636Z,30.04
2023-07-08T18:20:38.280Z,29.78
2023-07-08T18:23:11.915Z,29.83
2023-07-08T18:25:38.434Z,30.04
2023-07-08T18:28:05.220Z,29.92
2023-07-08T18:30:33.130Z,30.01
2023-07-08T18:33:01.040Z,30.19
2023-07-08T18:35:29.759Z,30.52
2023-07-08T18:37:57.255Z,30.57
2023-07-08T18:40:30.907Z,30.85
2023-07-08T18:43:15.964Z,30.96
2023-07-08T18:45:42.474Z,31.29
2023-07-08T18:48:12.256Z,31.18
2023-07-08T18:50:39.506Z,31.14
2023-07-08T18:53:13.539Z,31.31
2023-07-08T18:55:40.347Z,31.44
2023-07-08T18:58:11.290Z,31.82
2023-07-08T19:00:37.949Z,31.80
2023-07-08T19:03:21.911Z,32.18
2023-07-08T19:05:48.624Z,32.24
2023-07-08T19:08:15.180Z,32.59
2023-07-08T19:10:44.390Z,32.85
2023-07-08T19:13:27.424Z,32.89
2023-07-08T19:15:55.379Z,32.94
2023-07-08T19:18:21.946Z,35.17
2023-07-08T19:20:50.294Z,36.97
2023-07-08T19:23:20.753Z,38.14
2023-07-08T19:25:47.281Z,39.85
2023-07-08T19:28:13.861Z,41.00
2023-07-08T19:30:42.860Z,42.24
2023-07-08T19:33:15.279Z,43.36
2023-07-08T19:35:44.752Z,44.22
2023-07-08T19:38:13.197Z,45.13
2023-07-08T19:40:47.341Z,45.15
2023-07-08T19:43:13.999Z,46.29
2023-07-08T19:45:40.497Z,46.53
2023-07-08T19:48:11.200Z,47.32
2023-07-08T19:50:37.738Z,47.67
2023-07-08T19:53:05.084Z,47.50
2023-07-08T19:55:32.169Z,47.81
2023-07-08T19:57:58.805Z,47.85
2023-07-08T20:00:37.660Z,48.06
2023-07-08T20:03:05.187Z,48.30
2023-07-08T20:05:35.161Z,48.74
2023-07-08T20:08:17.425Z,48.58
2023-07-08T20:10:43.907Z,48.21
2023-07-08T20:13:12.296Z,48.69
2023-07-08T20:15:42.390Z,48.24
2023-07-08T20:18:14.419Z,48.92
2023-07-08T20:20:41.049Z,48.52
2023-07-08T20:23:14.696Z,48.96
2023-07-08T20:25:45.898Z,48.63
2023-07-08T20:28:15.570Z,49.05
2023-07-08T20:30:42.415Z,48.80
2023-07-08T20:33:13.853Z,48.42
2023-07-08T20:35:41.098Z,48.50
2023-07-08T20:38:11.849Z,48.82
2023-07-08T20:40:39.353Z,48.79
2023-07-08T20:43:20.240Z,48.77
2023-07-08T20:45:49.859Z,48.50
2023-07-08T20:48:24.716Z,48.66
2023-07-08T20:50:51.739Z,48.63
2023-07-08T20:53:19.791Z,47.98
2023-07-08T20:55:47.095Z,47.86
2023-07-08T20:58:16.998Z,47.29
2023-07-08T21:00:46.319Z,47.67
2023-07-08T21:03:17.642Z,47.66
2023-07-08T21:05:46.328Z,47.40
2023-07-08T21:08:28.421Z,47.01
2023-07-08T21:10:57.314Z,47.54
2023-07-08T21:13:24.396Z,47.51
2023-07-08T21:15:51.400Z,47.65
2023-07-08T21:18:21.985Z,47.66
2023-07-08T21:20:48.669Z,47.62
2023-07-08T21:23:19.594Z,47.71
2023-07-08T21:25:49.513Z,47.80
2023-07-08T21:28:38.310Z,48.19
2023-07-08T21:31:05.311Z,48.43
2023-07-08T21:33:31.987Z,48.63
2023-07-08T21:36:01.142Z,48.46
2023-07-08T21:38:28.228Z,48.90
2023-07-08T21:40:55.442Z,48.93
2023-07-08T21:43:24.742Z,48.92
2023-07-08T21:45:52.273Z,49.12
2023-07-08T21:48:20.424Z,49.31
2023-07-08T21:50:55.894Z,49.33
2023-07-08T21:53:32.427Z,50.39
2023-07-08T21:55:59.786Z,50.16
2023-07-08T21:58:27.190Z,50.35
2023-07-08T22:00:54.603Z,50.71
2023-07-08T22:03:28.286Z,50.67
2023-07-08T22:05:56.360Z,51.19
2023-07-08T22:08:25.619Z,51.43
2023-07-08T22:11:03.120Z,51.65
2023-07-08T22:13:31.443Z,51.89
2023-07-08T22:16:04.516Z,51.93
2023-07-08T22:18:31.360Z,52.30
2023-07-08T22:21:00.925Z,52.02
2023-07-08T22:23:29.813Z,52.58
2023-07-08T22:26:00.306Z,52.58
2023-07-08T22:28:27.115Z,52.76
2023-07-08T22:30:54.504Z,53.05
2023-07-08T22:33:25.616Z,53.33
2023-07-08T22:35:52.483Z,53.75
2023-07-08T22:38:19.551Z,54.04
2023-07-08T22:40:48.688Z,54.25
2023-07-08T22:43:25.770Z,54.46
2023-07-08T22:45:52.303Z,55.01
2023-07-08T22:48:18.947Z,55.17
2023-07-08T22:50:47.543Z,55.58
2023-07-08T22:53:19.285Z,55.82
2023-07-08T22:55:47.127Z,55.96
2023-07-08T22:58:40.045Z,56.31
2023-07-08T23:01:06.610Z,56.61
2023-07-08T23:03:33.226Z,56.76
2023-07-08T23:06:00.647Z,56.66
2023-07-08T23:08:34.239Z,57.35
2023-07-08T23:11:01.357Z,57.77
2023-07-08T23:13:37.450Z,58.02
2023-07-08T23:16:16.228Z,58.22
2023-07-08T23:18:47.809Z,58.49
2023-07-08T23:21:16.424Z,59.32
2023-07-08T23:23:42.976Z,59.24
2023-07-08T23:26:33.500Z,59.80
2023-07-08T23:29:02.429Z,60.74
2023-07-08T23:31:31.299Z,61.64
2023-07-08T23:34:00.126Z,62.63
2023-07-08T23:36:39.397Z,63.06
2023-07-08T23:39:35.422Z,63.51
2023-07-08T23:42:02.645Z,64.67
2023-07-08T23:44:29.379Z,65.42
2023-07-08T23:47:00.301Z,65.95
2023-07-08T23:49:31.159Z,66.76
2023-07-08T23:51:59.545Z,67.12
2023-07-08T23:54:28.052Z,68.04
2023-07-08T23:56:59.671Z,69.06
2023-07-08T23:59:30.154Z,69.40
